Beauharnos

CMBR · Quebec, 加拿大

罗盘
风向 的 风向 280°
风: 12 kt, 4 beaufort

添加一条跑道以查看侧风和逆风信息。

添置 跑道
0 ft 5.000 10.000 15.000 20.000
Cloud Cloud Cloud Cloud Cloud Cloud
BKN 9.500
Cloud Cloud Cloud Cloud Cloud Cloud
BKN 11.000
Cloud Cloud Cloud Cloud Cloud Cloud Cloud Cloud
OVC 20.000
METAR CYUL 232300Z 28012KT 15SM BKN095 BKN110 OVC200 17/M00 A2976 RMK AC6AS1CS1 SLP081 DENSITY ALT 600FT

METAR Beauharnos - CMBR

Beauharnos是,加拿大中的未知。 该机场位于纬度45,31667和经度-73,91667。 本场的ICAO机场代码为CMBR。 机场在Montreal FIR中。

该航空气象观测是针对蒙特利尔皮埃尔·埃利奥特·特鲁多国际机场在2024年4月23日 19:00, 当地时间进行的。

机场观察

风向为280°,速度为12 kt。

可见度为15 mi。

有碎云在9.500 ft的高度, 碎云在11.000 ft的高度 和 乌云密布在20.000 ft的高度。 破损或更高的上限为9.500 ft。

温度和风寒是17 °C。 海平面上的气压为29,76 inHg (QNH)。

白天

今天,太阳从05:55升起,在19:52降落。 这适用于Beauharnos,世界夏令时可能有所不同。 当地时间与世界标准时间之间的时差为-4 小时。 夏令时目前正在进行中。

公司介绍

我们没有关于这个机场的公司信息。

体会

到Vliegles.nl去找飞行课程,跳伞和其他飞行体验。 浏览页面,了解Beauharnos附近所有可用的活动。 你也可以使用搜索功能来寻找你所在地附近的特定飞行课程、跳伞或其他飞行体验。

乌云

9.500 ft BKN 碎云
11.000 ft BKN 碎云
20.000 ft OVC 乌云密布

温度 & 天气

温度 17 °C
露点 0 °C
相对湿度 32%
Kp-index 2 (0-9)

评论

SLP081海平面压力为29,77 inHg (29,77 inHg)
AC6AS1CS1 DENSITY ALT 600FT

白天

日出
05:54
中午
12:53
日落
19:51 (30m)

小工具

你想在你的网站上有一个关于Beauharnos的当前航空天气(METAR)的小部件吗?

显示HTML代码
报告变更